createdAt,value
2018-06-08T00:01:13.651Z,16.65
2018-06-08T00:03:42.329Z,16.63
2018-06-08T00:06:11.015Z,16.63
2018-06-08T00:08:39.576Z,16.64
2018-06-08T00:11:08.266Z,16.64
2018-06-08T00:13:36.967Z,16.60
2018-06-08T00:16:05.562Z,16.63
2018-06-08T00:18:34.236Z,16.61
2018-06-08T00:21:03.551Z,16.54
2018-06-08T00:23:32.178Z,16.58
2018-06-08T00:26:00.804Z,16.58
2018-06-08T00:28:29.489Z,16.56
2018-06-08T00:30:58.110Z,16.54
2018-06-08T00:33:26.738Z,16.54
2018-06-08T00:35:55.443Z,16.55
2018-06-08T00:38:23.985Z,16.56
2018-06-08T00:40:53.427Z,16.54
2018-06-08T00:43:22.700Z,16.55
2018-06-08T00:45:51.270Z,16.53
2018-06-08T00:48:19.893Z,16.55
2018-06-08T00:50:48.475Z,16.54
2018-06-08T00:53:17.138Z,16.53
2018-06-08T00:55:45.815Z,16.52
2018-06-08T00:58:14.429Z,16.51
2018-06-08T01:00:43.114Z,16.48
2018-06-08T01:03:11.634Z,16.46
2018-06-08T01:05:40.284Z,16.43
2018-06-08T01:08:08.966Z,16.40
2018-06-08T01:10:37.549Z,16.38
2018-06-08T01:13:06.233Z,16.36
2018-06-08T01:15:35.366Z,16.34
2018-06-08T01:18:04.075Z,16.32
2018-06-08T01:20:33.539Z,16.31
2018-06-08T01:23:02.205Z,16.31
2018-06-08T01:25:30.722Z,16.31
2018-06-08T01:27:59.330Z,16.28
2018-06-08T01:30:28.001Z,16.28
2018-06-08T01:32:56.534Z,16.28
2018-06-08T01:35:26.165Z,16.19
2018-06-08T01:37:55.355Z,16.28
2018-06-08T01:40:24.514Z,16.29
2018-06-08T01:42:53.074Z,16.28
2018-06-08T01:45:21.633Z,16.28
2018-06-08T01:47:50.284Z,16.28
2018-06-08T01:50:18.802Z,16.26
2018-06-08T01:52:47.494Z,16.25
2018-06-08T01:55:16.713Z,16.25
2018-06-08T01:57:45.332Z,16.24
2018-06-08T02:00:14.021Z,16.22
2018-06-08T02:02:42.600Z,16.17
2018-06-08T02:05:11.287Z,16.11
2018-06-08T02:07:39.905Z,16.04
2018-06-08T02:10:08.555Z,16.04
2018-06-08T02:12:37.154Z,16.04
2018-06-08T02:15:05.824Z,16.04
2018-06-08T02:17:34.727Z,16.04
2018-06-08T02:20:03.398Z,16.03
2018-06-08T02:22:32.099Z,16.02
2018-06-08T02:25:00.746Z,16.01
2018-06-08T02:27:29.454Z,16.01
2018-06-08T02:29:58.343Z,16.01
2018-06-08T02:32:27.028Z,16.00
2018-06-08T02:34:55.714Z,15.98
2018-06-08T02:37:24.497Z,15.92
2018-06-08T02:39:53.084Z,15.80
2018-06-08T02:42:21.920Z,15.67
2018-06-08T02:44:50.502Z,15.57
2018-06-08T02:47:19.058Z,15.58
2018-06-08T02:49:47.728Z,15.62
2018-06-08T02:52:16.307Z,15.69
2018-06-08T02:54:44.893Z,15.74
2018-06-08T02:57:13.521Z,15.80
2018-06-08T02:59:42.157Z,15.86
2018-06-08T03:02:10.843Z,15.90
2018-06-08T03:04:39.455Z,15.95
2018-06-08T03:07:08.043Z,15.98
2018-06-08T03:09:36.919Z,16.02
2018-06-08T03:12:05.600Z,16.03
2018-06-08T03:14:34.269Z,16.05
2018-06-08T03:17:02.954Z,16.09
2018-06-08T03:19:32.394Z,16.13
2018-06-08T03:22:01.610Z,16.18
2018-06-08T03:24:30.278Z,16.22
2018-06-08T03:27:00.154Z,16.24
2018-06-08T03:29:28.750Z,16.32
2018-06-08T03:31:57.335Z,16.36
2018-06-08T03:34:25.889Z,16.42
2018-06-08T03:36:54.433Z,16.45
2018-06-08T03:39:23.070Z,16.49
2018-06-08T03:41:51.702Z,16.54
2018-06-08T03:44:20.283Z,16.59
2018-06-08T03:46:48.920Z,16.65
2018-06-08T03:49:17.504Z,16.72
2018-06-08T03:51:46.035Z,16.77
2018-06-08T03:54:14.538Z,16.83
2018-06-08T03:56:43.243Z,16.89
2018-06-08T03:59:11.936Z,16.96
2018-06-08T04:01:40.623Z,17.03
2018-06-08T04:04:09.215Z,17.10
2018-06-08T04:06:37.790Z,17.16
2018-06-08T04:09:08.354Z,17.23
2018-06-08T04:11:37.179Z,17.30
2018-06-08T04:14:05.889Z,17.39
2018-06-08T04:16:34.473Z,17.50
2018-06-08T04:19:03.095Z,17.58
2018-06-08T04:21:31.722Z,17.69
2018-06-08T04:24:00.324Z,17.81
2018-06-08T04:26:29.014Z,17.91
2018-06-08T04:28:57.591Z,18.00
2018-06-08T04:31:26.767Z,18.11
2018-06-08T04:33:55.371Z,18.19
2018-06-08T04:36:23.870Z,18.30
2018-06-08T04:38:52.930Z,18.41
2018-06-08T04:41:21.470Z,18.45
2018-06-08T04:43:50.114Z,18.57
2018-06-08T04:46:18.699Z,18.63
2018-06-08T04:48:47.802Z,18.69
2018-06-08T04:51:16.372Z,18.76
2018-06-08T04:53:44.966Z,18.81
2018-06-08T04:56:13.745Z,18.92
2018-06-08T04:58:42.859Z,19.00
2018-06-08T05:01:11.527Z,19.05
2018-06-08T05:03:40.211Z,19.10
2018-06-08T05:06:08.797Z,19.17
2018-06-08T05:08:37.481Z,19.19
2018-06-08T05:11:06.118Z,19.28
2018-06-08T05:13:34.745Z,19.38
2018-06-08T05:16:03.363Z,19.44
2018-06-08T05:18:32.013Z,19.52
2018-06-08T05:21:00.654Z,19.61
2018-06-08T05:23:29.283Z,19.68
2018-06-08T05:25:58.935Z,19.74
2018-06-08T05:28:27.680Z,19.79
2018-06-08T05:30:56.346Z,19.84
2018-06-08T05:33:25.084Z,19.92
2018-06-08T05:35:53.734Z,20.03
2018-06-08T05:38:22.350Z,20.15
2018-06-08T05:40:50.851Z,20.24
2018-06-08T05:43:19.481Z,20.32
2018-06-08T05:45:48.092Z,20.37
2018-06-08T05:48:16.711Z,20.45
2018-06-08T05:50:45.433Z,20.55
2018-06-08T05:53:14.630Z,20.66
2018-06-08T05:55:43.215Z,20.66
2018-06-08T05:58:11.718Z,20.78
2018-06-08T06:00:40.380Z,20.83
2018-06-08T06:03:09.077Z,20.85
2018-06-08T06:05:37.957Z,20.88
2018-06-08T06:08:07.464Z,20.89
2018-06-08T06:10:36.094Z,20.96
2018-06-08T06:13:04.731Z,21.04
2018-06-08T06:15:33.338Z,21.11
2018-06-08T06:18:02.013Z,21.21
2018-06-08T06:20:30.684Z,21.30
2018-06-08T06:22:59.366Z,21.38
2018-06-08T06:25:28.008Z,21.44
2018-06-08T06:27:56.536Z,21.54
2018-06-08T06:30:25.212Z,21.69
2018-06-08T06:32:53.752Z,21.77
2018-06-08T06:35:22.315Z,21.80
2018-06-08T06:37:51.482Z,21.81
2018-06-08T06:40:20.674Z,21.84
2018-06-08T06:42:49.362Z,21.92
2018-06-08T06:45:18.034Z,22.00
2018-06-08T06:47:46.561Z,22.04
2018-06-08T06:50:15.223Z,22.12
2018-06-08T06:52:43.896Z,22.19
2018-06-08T06:55:12.544Z,22.20
2018-06-08T06:57:41.208Z,22.17
2018-06-08T07:00:09.811Z,22.19
2018-06-08T07:02:38.364Z,22.27
2018-06-08T07:05:07.166Z,22.35
2018-06-08T07:07:35.654Z,22.42
2018-06-08T07:10:04.359Z,22.56
2018-06-08T07:12:32.970Z,22.55
2018-06-08T07:15:01.554Z,22.62
2018-06-08T07:17:30.094Z,22.64
2018-06-08T07:19:58.723Z,22.67
2018-06-08T07:22:27.354Z,22.72
2018-06-08T07:24:55.939Z,22.75
2018-06-08T07:27:24.571Z,22.72
2018-06-08T07:29:53.153Z,22.68
2018-06-08T07:32:21.804Z,22.64
2018-06-08T07:34:50.418Z,22.62
2018-06-08T07:37:19.024Z,21.25
2018-06-08T07:39:48.507Z,22.63
2018-06-08T07:42:17.602Z,22.67
2018-06-08T07:44:47.003Z,22.70
2018-06-08T07:47:16.303Z,22.82
2018-06-08T07:49:44.989Z,22.89
2018-06-08T07:52:13.653Z,22.95
2018-06-08T07:54:42.259Z,23.11
2018-06-08T07:57:10.833Z,23.23
2018-06-08T07:59:39.752Z,23.30
2018-06-08T08:02:08.520Z,23.36
2018-06-08T08:04:37.170Z,23.32
2018-06-08T08:07:05.888Z,23.25
2018-06-08T08:09:34.471Z,23.24
2018-06-08T08:12:03.874Z,23.25
2018-06-08T08:14:32.455Z,23.25
2018-06-08T08:17:01.141Z,23.26
2018-06-08T08:19:29.832Z,23.21
2018-06-08T08:21:58.942Z,23.28
2018-06-08T08:24:27.540Z,23.36
2018-06-08T08:26:56.110Z,23.40
2018-06-08T08:29:24.776Z,23.39
2018-06-08T08:31:53.460Z,23.43
2018-06-08T08:34:22.096Z,23.47
2018-06-08T08:36:50.654Z,23.53
2018-06-08T08:39:20.582Z,23.53
2018-06-08T08:41:49.225Z,23.54
2018-06-08T08:44:17.808Z,23.61
2018-06-08T08:46:46.491Z,23.74
2018-06-08T08:49:15.187Z,23.78
2018-06-08T08:51:43.869Z,23.83
2018-06-08T08:54:12.832Z,23.83
2018-06-08T08:56:41.440Z,23.82
2018-06-08T08:59:10.946Z,23.73
2018-06-08T09:01:39.552Z,23.86
2018-06-08T09:04:08.208Z,23.96
2018-06-08T09:06:36.897Z,24.08
2018-06-08T09:09:07.436Z,24.05
2018-06-08T09:11:36.105Z,24.14
2018-06-08T09:14:04.795Z,24.19
2018-06-08T09:16:33.479Z,24.16
2018-06-08T09:19:02.107Z,23.84
2018-06-08T09:21:30.703Z,23.92
2018-06-08T09:23:59.258Z,23.93
2018-06-08T09:26:27.912Z,23.93
2018-06-08T09:28:56.574Z,24.09
2018-06-08T09:31:25.714Z,24.11
2018-06-08T09:33:54.377Z,24.11
2018-06-08T09:36:23.450Z,24.10
2018-06-08T09:38:52.014Z,24.10
2018-06-08T09:41:20.741Z,24.10
2018-06-08T09:43:49.487Z,24.09
2018-06-08T09:46:18.115Z,24.10
2018-06-08T09:48:46.746Z,24.09
2018-06-08T09:51:15.379Z,24.04
2018-06-08T09:53:44.067Z,23.98
2018-06-08T09:56:12.646Z,24.07
2018-06-08T09:58:41.262Z,23.87
2018-06-08T10:01:09.862Z,24.22
2018-06-08T10:03:38.451Z,24.26
2018-06-08T10:06:07.041Z,24.37
2018-06-08T10:08:35.663Z,24.37
2018-06-08T10:11:04.350Z,24.39
2018-06-08T10:13:33.038Z,24.36
2018-06-08T10:16:01.617Z,24.24
2018-06-08T10:18:30.251Z,24.25
2018-06-08T10:20:58.886Z,24.30
2018-06-08T10:23:27.571Z,24.40
2018-06-08T10:25:56.359Z,24.47
2018-06-08T10:28:25.084Z,24.49
2018-06-08T10:30:53.594Z,24.56
2018-06-08T10:33:22.155Z,24.62
2018-06-08T10:35:51.566Z,24.54
2018-06-08T10:38:20.043Z,24.54
2018-06-08T10:40:48.727Z,24.63
2018-06-08T10:43:17.257Z,24.50
2018-06-08T10:45:45.756Z,24.44
2018-06-08T10:48:15.067Z,24.42
2018-06-08T10:50:43.663Z,24.41
2018-06-08T10:53:12.305Z,24.49
2018-06-08T10:55:41.709Z,24.60
2018-06-08T10:58:10.344Z,24.68
2018-06-08T11:00:38.976Z,24.67
2018-06-08T11:03:07.525Z,24.76
2018-06-08T11:05:36.091Z,24.83
2018-06-08T11:08:04.697Z,24.83
2018-06-08T11:10:33.210Z,24.76
2018-06-08T11:13:02.606Z,24.76
2018-06-08T11:15:31.287Z,24.81
2018-06-08T11:17:59.774Z,24.92
2018-06-08T11:20:28.458Z,24.94
2018-06-08T11:22:57.139Z,24.89
2018-06-08T11:25:26.450Z,24.83
2018-06-08T11:27:55.086Z,24.85
2018-06-08T11:30:23.661Z,24.88
2018-06-08T11:32:52.976Z,24.78
2018-06-08T11:35:21.698Z,24.83
2018-06-08T11:37:50.306Z,25.01
2018-06-08T11:40:18.973Z,25.15
2018-06-08T11:42:48.367Z,25.28
2018-06-08T11:45:17.052Z,25.39
2018-06-08T11:47:45.736Z,25.38
2018-06-08T11:50:14.526Z,25.39
2018-06-08T11:52:43.876Z,25.39
2018-06-08T11:55:12.975Z,25.40
2018-06-08T11:57:42.342Z,25.35
2018-06-08T12:00:11.039Z,25.43
2018-06-08T12:02:39.535Z,25.55
2018-06-08T12:05:08.137Z,25.56
2018-06-08T12:07:36.756Z,25.51
2018-06-08T12:10:05.755Z,25.48
2018-06-08T12:12:34.350Z,25.51
2018-06-08T12:15:04.488Z,25.60
2018-06-08T12:17:33.070Z,25.59
2018-06-08T12:20:02.474Z,25.70
2018-06-08T12:22:31.445Z,25.80
2018-06-08T12:25:00.075Z,25.67
2018-06-08T12:27:28.695Z,25.64
2018-06-08T12:29:57.846Z,25.80
2018-06-08T12:32:27.295Z,25.87
2018-06-08T12:34:56.406Z,25.80
2018-06-08T12:37:24.957Z,25.80
2018-06-08T12:39:53.612Z,25.80
2018-06-08T12:42:22.774Z,25.73
2018-06-08T12:44:52.314Z,25.72
2018-06-08T12:47:20.862Z,25.69
2018-06-08T12:49:49.423Z,25.76
2018-06-08T12:52:18.070Z,25.75
2018-06-08T12:54:46.694Z,25.85
2018-06-08T12:57:15.827Z,25.93
2018-06-08T12:59:44.398Z,26.00
2018-06-08T13:02:13.671Z,26.11
2018-06-08T13:04:42.298Z,26.17
2018-06-08T13:07:10.898Z,26.31
2018-06-08T13:09:39.520Z,26.31
2018-06-08T13:12:08.820Z,26.42
2018-06-08T13:14:37.344Z,26.27
2018-06-08T13:17:07.061Z,26.24
2018-06-08T13:19:36.290Z,26.26
2018-06-08T13:22:04.943Z,26.36
2018-06-08T13:24:33.706Z,26.35
2018-06-08T13:27:02.308Z,26.38
2018-06-08T13:29:30.948Z,26.24
2018-06-08T13:31:59.588Z,26.21
2018-06-08T13:34:28.156Z,26.27
2018-06-08T13:36:57.003Z,26.16
2018-06-08T13:39:25.985Z,26.22
2018-06-08T13:41:55.023Z,26.28
2018-06-08T13:44:23.610Z,26.30
2018-06-08T13:46:52.260Z,26.28
2018-06-08T13:49:20.935Z,26.42
2018-06-08T13:51:49.558Z,26.47
2018-06-08T13:54:18.166Z,26.49
2018-06-08T13:56:46.789Z,26.44
2018-06-08T13:59:15.396Z,26.48
2018-06-08T14:01:44.350Z,26.37
2018-06-08T14:04:13.218Z,26.45
2018-06-08T14:06:41.887Z,26.43
2018-06-08T14:09:10.448Z,26.46
2018-06-08T14:11:38.955Z,26.60
2018-06-08T14:14:07.492Z,26.66
2018-06-08T14:16:36.092Z,26.78
2018-06-08T14:19:04.908Z,26.73
2018-06-08T14:21:33.482Z,26.79
2018-06-08T14:24:02.074Z,26.75
2018-06-08T14:26:30.652Z,26.77
2018-06-08T14:28:59.190Z,26.86
2018-06-08T14:31:27.873Z,26.87
2018-06-08T14:33:56.561Z,26.99
2018-06-08T14:36:25.961Z,26.37
2018-06-08T14:38:54.695Z,27.13
2018-06-08T14:41:23.342Z,27.23
2018-06-08T14:43:52.071Z,27.18
2018-06-08T14:46:21.214Z,27.24
2018-06-08T14:48:50.002Z,27.31
2018-06-08T14:51:18.592Z,27.34
2018-06-08T14:53:47.271Z,27.42
2018-06-08T14:56:16.675Z,27.37
2018-06-08T14:58:45.367Z,27.24
2018-06-08T15:01:13.922Z,27.19
2018-06-08T15:03:43.191Z,26.93
2018-06-08T15:06:11.719Z,26.99
2018-06-08T15:08:40.408Z,27.14
2018-06-08T15:11:09.096Z,27.29
2018-06-08T15:13:37.586Z,27.40
2018-06-08T15:16:06.315Z,27.11
2018-06-08T15:18:34.902Z,27.02
2018-06-08T15:21:03.480Z,27.06
2018-06-08T15:23:32.118Z,27.19
2018-06-08T15:26:00.719Z,27.29
2018-06-08T15:28:29.222Z,27.31
2018-06-08T15:30:57.826Z,27.13
2018-06-08T15:33:26.443Z,27.28
2018-06-08T15:35:55.067Z,27.43
2018-06-08T15:38:23.711Z,27.54
2018-06-08T15:40:52.396Z,27.53
2018-06-08T15:43:21.081Z,27.52
2018-06-08T15:45:49.814Z,27.47
2018-06-08T15:48:19.427Z,27.50
2018-06-08T15:50:48.058Z,27.39
2018-06-08T15:53:16.683Z,27.23
2018-06-08T15:55:45.247Z,27.31
2018-06-08T15:58:14.362Z,27.39
2018-06-08T16:00:42.905Z,27.37
2018-06-08T16:03:11.435Z,27.48
2018-06-08T16:05:40.887Z,27.52
2018-06-08T16:08:09.674Z,27.56
2018-06-08T16:10:38.208Z,27.61
2018-06-08T16:13:06.888Z,27.56
2018-06-08T16:15:35.482Z,27.63
2018-06-08T16:18:04.106Z,27.57
2018-06-08T16:20:32.591Z,27.33
2018-06-08T16:23:01.122Z,27.28
2018-06-08T16:25:30.328Z,27.28
2018-06-08T16:27:58.870Z,27.30
2018-06-08T16:30:27.490Z,27.14
2018-06-08T16:32:56.232Z,27.04
2018-06-08T16:35:24.823Z,27.09
2018-06-08T16:37:53.485Z,27.17
2018-06-08T16:40:22.991Z,27.14
2018-06-08T16:42:51.574Z,27.22
2018-06-08T16:45:20.240Z,27.25
2018-06-08T16:47:49.275Z,27.10
2018-06-08T16:50:17.945Z,27.07
2018-06-08T16:52:46.519Z,27.05
2018-06-08T16:55:15.110Z,27.04
2018-06-08T16:57:43.775Z,26.84
2018-06-08T17:00:12.338Z,26.85
2018-06-08T17:02:40.956Z,26.82
2018-06-08T17:05:09.534Z,26.76
2018-06-08T17:07:38.938Z,26.67
2018-06-08T17:10:07.624Z,26.65
2018-06-08T17:12:36.285Z,26.62
2018-06-08T17:15:04.995Z,26.56
2018-06-08T17:17:33.598Z,26.54
2018-06-08T17:20:02.160Z,26.45
2018-06-08T17:22:30.844Z,26.50
2018-06-08T17:24:59.474Z,26.43
2018-06-08T17:27:28.023Z,26.34
2018-06-08T17:29:56.563Z,26.33
2018-06-08T17:32:25.711Z,26.16
2018-06-08T17:34:55.093Z,26.21
2018-06-08T17:37:23.742Z,26.22
2018-06-08T17:39:52.382Z,26.06
2018-06-08T17:42:20.942Z,26.05
2018-06-08T17:44:49.632Z,26.05
2018-06-08T17:47:18.215Z,25.97
2018-06-08T17:49:46.738Z,25.94
2018-06-08T17:52:15.838Z,25.79
2018-06-08T17:54:44.505Z,25.74
2018-06-08T17:57:13.271Z,25.68
2018-06-08T17:59:42.000Z,25.70
2018-06-08T18:02:10.571Z,25.65
2018-06-08T18:04:39.142Z,25.60
2018-06-08T18:07:07.790Z,25.48
2018-06-08T18:09:36.321Z,25.40
2018-06-08T18:12:04.920Z,25.36
2018-06-08T18:14:33.455Z,25.28
2018-06-08T18:17:02.025Z,25.17
2018-06-08T18:19:30.607Z,25.09
2018-06-08T18:21:59.211Z,24.97
2018-06-08T18:24:27.814Z,24.89
2018-06-08T18:26:57.075Z,24.79
2018-06-08T18:29:25.664Z,24.67
2018-06-08T18:31:54.282Z,24.64
2018-06-08T18:34:22.923Z,24.55
2018-06-08T18:36:52.429Z,24.49
2018-06-08T18:39:21.114Z,24.41
2018-06-08T18:41:49.801Z,24.32
2018-06-08T18:44:18.333Z,24.21
2018-06-08T18:46:47.405Z,24.08
2018-06-08T18:49:16.218Z,24.00
2018-06-08T18:51:44.952Z,23.91
2018-06-08T18:54:13.550Z,23.79
2018-06-08T18:56:42.215Z,23.75
2018-06-08T18:59:10.904Z,23.70
2018-06-08T19:01:39.588Z,23.66
2018-06-08T19:04:08.208Z,23.55
2018-06-08T19:06:36.832Z,23.48
2018-06-08T19:09:08.338Z,23.42
2018-06-08T19:11:37.839Z,23.35
2018-06-08T19:14:06.686Z,23.27
2018-06-08T19:16:35.198Z,23.18
2018-06-08T19:19:04.243Z,23.08
2018-06-08T19:21:32.857Z,22.97
2018-06-08T19:24:01.454Z,22.87
2018-06-08T19:26:30.029Z,22.76
2018-06-08T19:28:59.167Z,22.64
2018-06-08T19:31:27.804Z,22.49
2018-06-08T19:33:56.495Z,22.34
2018-06-08T19:36:25.057Z,22.21
2018-06-08T19:38:53.763Z,22.08
2018-06-08T19:41:22.457Z,21.97
2018-06-08T19:43:51.131Z,21.83
2018-06-08T19:46:19.623Z,21.71
2018-06-08T19:48:48.254Z,21.58
2018-06-08T19:51:16.786Z,21.46
2018-06-08T19:53:46.024Z,21.35
2018-06-08T19:56:14.615Z,21.22
2018-06-08T19:58:43.241Z,21.08
2018-06-08T20:01:12.746Z,20.92
2018-06-08T20:03:41.238Z,20.78
2018-06-08T20:06:09.947Z,20.68
2018-06-08T20:08:39.230Z,20.57
2018-06-08T20:11:07.844Z,20.45
2018-06-08T20:13:36.399Z,20.33
2018-06-08T20:16:05.060Z,20.20
2018-06-08T20:18:33.746Z,20.10
2018-06-08T20:21:02.267Z,20.01
2018-06-08T20:23:31.567Z,19.88
2018-06-08T20:26:00.332Z,19.73
2018-06-08T20:28:29.055Z,19.59
2018-06-08T20:30:57.606Z,19.50
2018-06-08T20:33:26.163Z,19.40
2018-06-08T20:35:54.748Z,19.29
2018-06-08T20:38:23.334Z,19.15
2018-06-08T20:40:51.930Z,19.06
2018-06-08T20:43:20.539Z,18.96
2018-06-08T20:45:49.284Z,18.86
2018-06-08T20:48:17.869Z,18.77
2018-06-08T20:50:46.558Z,18.68
2018-06-08T20:53:15.243Z,18.59
2018-06-08T20:55:44.031Z,18.50
2018-06-08T20:58:22.522Z,18.43
2018-06-08T21:00:51.099Z,18.31
2018-06-08T21:03:19.918Z,18.21
2018-06-08T21:05:48.538Z,18.15
2018-06-08T21:08:17.181Z,18.08
2018-06-08T21:10:46.398Z,17.99
2018-06-08T21:13:15.003Z,17.91
2018-06-08T21:15:43.741Z,17.84
2018-06-08T21:18:12.378Z,17.75
2018-06-08T21:20:40.920Z,17.66
2018-06-08T21:23:09.886Z,17.58
2018-06-08T21:25:38.414Z,17.50
2018-06-08T21:28:06.906Z,17.44
2018-06-08T21:30:35.489Z,17.39
2018-06-08T21:33:04.135Z,17.32
2018-06-08T21:35:33.017Z,17.25
2018-06-08T21:38:02.119Z,17.20
2018-06-08T21:40:30.702Z,17.14
2018-06-08T21:42:59.739Z,17.08
2018-06-08T21:45:28.281Z,17.03
2018-06-08T21:47:57.578Z,16.97
2018-06-08T21:50:26.267Z,16.91
2018-06-08T21:52:54.896Z,16.86
2018-06-08T21:55:23.423Z,16.79
2018-06-08T21:57:51.926Z,16.70
2018-06-08T22:00:20.460Z,16.67
2018-06-08T22:02:49.120Z,16.63
2018-06-08T22:05:18.323Z,16.58
2018-06-08T22:07:47.580Z,16.52
2018-06-08T22:10:16.205Z,16.47
2018-06-08T22:12:44.783Z,16.36
2018-06-08T22:15:13.362Z,16.32
2018-06-08T22:17:42.007Z,16.27
2018-06-08T22:20:10.691Z,16.23
2018-06-08T22:22:39.377Z,16.17
2018-06-08T22:25:08.065Z,16.11
2018-06-08T22:27:37.350Z,16.06
2018-06-08T22:30:06.046Z,16.01
2018-06-08T22:32:34.576Z,15.95
2018-06-08T22:35:03.224Z,15.91
2018-06-08T22:37:31.838Z,15.88
2018-06-08T22:40:00.334Z,15.84
2018-06-08T22:42:28.888Z,15.80
2018-06-08T22:44:57.473Z,15.75
2018-06-08T22:47:26.074Z,15.71
2018-06-08T22:49:55.323Z,15.68
2018-06-08T22:52:24.482Z,15.63
2018-06-08T22:54:53.002Z,15.56
2018-06-08T22:57:21.583Z,15.52
2018-06-08T22:59:50.114Z,15.46
2018-06-08T23:02:18.749Z,15.40
2018-06-08T23:04:47.333Z,15.36
2018-06-08T23:07:15.916Z,15.32
2018-06-08T23:09:44.461Z,15.27
2018-06-08T23:12:13.033Z,15.22
2018-06-08T23:14:41.719Z,15.18
2018-06-08T23:17:10.263Z,15.15
2018-06-08T23:19:38.932Z,15.12
2018-06-08T23:22:07.562Z,15.07
2018-06-08T23:24:36.200Z,15.02
2018-06-08T23:27:04.750Z,15.00
2018-06-08T23:29:33.366Z,14.97
2018-06-08T23:32:01.969Z,14.95
2018-06-08T23:34:30.633Z,14.93
2018-06-08T23:36:59.323Z,14.91
2018-06-08T23:39:27.930Z,14.87
2018-06-08T23:41:56.506Z,14.84
2018-06-08T23:44:25.150Z,14.81
2018-06-08T23:46:54.419Z,14.77
2018-06-08T23:49:22.966Z,14.72
2018-06-08T23:51:51.666Z,14.69
2018-06-08T23:54:20.325Z,14.68
2018-06-08T23:56:48.910Z,14.64
2018-06-08T23:59:18.206Z,14.62
